< Typhoon 198321 1983 Season Typhoon 198323 >
Typhoon 198322 (SPERRY)
General InformationTrack Information on Google MapsDetailed Wind InformationList of All Images || Disaster Info.ResourceGoogle EarthGE AnimationAtom FeedGeoJSON
Detalied Best Track (Time Zone = UTC)
Year Month Day Hour Lat. Long. Pressure (hPa) Wind (kt) Class Image Chart
1983 11 30 00 8.0 146.0 1008 0 2 Image Chart
1983 11 30 06 8.6 144.7 1006 0 2 Image Chart
1983 11 30 12 9.3 143.5 1008 0 2 Image Chart
1983 11 30 18 9.9 142.3 1006 0 2 Image Chart
1983 12 1 00 10.5 141.0 1008 0 2 Image Chart
1983 12 1 06 11.3 139.6 1006 0 2 Image Chart
1983 12 1 12 12.0 138.3 1006 0 2 Image Chart
1983 12 1 18 12.7 136.9 1006 0 2 Image Chart
1983 12 2 00 13.5 135.5 1008 0 2 Image Chart
1983 12 2 06 14.4 134.5 1006 0 2 Image Chart
1983 12 2 12 15.3 133.5 1004 0 2 Image Chart
1983 12 2 18 16.0 132.5 1002 0 2 Image Chart
1983 12 3 00 16.5 131.5 1000 45 3 Image Chart
1983 12 3 06 17.5 131.5 998 45 3 Image Chart
1983 12 3 12 18.1 132.0 996 45 3 Image Chart
1983 12 3 18 18.0 132.3 996 45 3 Image Chart
1983 12 4 00 18.0 132.8 998 45 3 Image Chart
1983 12 4 06 17.2 133.0 1000 45 3 Image Chart
1983 12 4 12 16.5 133.0 1004 0 2 Image Chart
1983 12 4 18 16.0 133.2 1004 0 2 Image Chart
1983 12 5 00 15.6 133.3 1010 0 2 Image Chart
Japan Meteorological Agency Best Track Data | Correction Date : 1992-10-21
< Typhoon 198321 1983 Season Typhoon 198323 >

Help